Time;durP1;ratioP1;P1;durP2;ratioP2;P2;SDS_P1;SDS_P2;PMS_P1;PMS_P2;Temp;Humidity;BMP_temperature;BMP_pressure;BME280_temperature;BME280_humidity;BME280_pressure;Samples;Min_cycle;Max_cycle;Signal;HPM_P1;HPM_P2
2023/07/02 00:02:41;;;;;;;6.25;2.83;;;;;;;17.77;60.42;99638.00;20780484;28;20761;-85
2023/07/02 00:12:44;;;;;;;2.55;2.35;;;;;;;17.67;60.21;99627.38;20801434;28;20216;-86
2023/07/02 00:22:46;;;;;;;5.40;2.30;;;;;;;17.47;60.44;99621.91;20827790;28;20193;-83
2023/07/02 00:32:49;;;;;;;3.70;2.45;;;;;;;17.68;60.15;99623.28;20777809;28;20727;-84
2023/07/02 00:42:51;;;;;;;5.03;2.58;;;;;;;17.84;59.66;99627.47;20810374;28;20261;-84
2023/07/02 00:52:54;;;;;;;5.40;2.72;;;;;;;17.29;61.23;99625.78;20794128;28;20259;-84
2023/07/02 01:02:58;;;;;;;3.85;2.85;;;;;;;17.21;61.27;99622.88;20792816;28;20201;-83
2023/07/02 01:13:12;;;;;;;4.60;2.58;;;;;;;18.10;58.03;99611.41;20782311;28;20224;-83
2023/07/02 01:23:15;;;;;;;5.35;2.90;;;;;;;17.53;58.86;99616.69;20790285;28;20231;-85
2023/07/02 01:33:17;;;;;;;4.70;2.50;;;;;;;17.49;59.33;99581.69;20789279;28;20220;-80
2023/07/02 01:43:20;;;;;;;4.43;3.00;;;;;;;17.42;59.04;99578.78;20822172;28;20590;-84
2023/07/02 01:53:22;;;;;;;4.97;2.95;;;;;;;16.11;62.99;99575.25;20821163;28;20216;-84
2023/07/02 02:03:25;;;;;;;6.07;3.53;;;;;;;16.96;59.78;99629.50;20820670;28;20502;-83
2023/07/02 02:13:27;;;;;;;5.85;2.80;;;;;;;16.50;61.36;99636.25;20771182;28;20286;-84
2023/07/02 02:23:30;;;;;;;5.85;3.40;;;;;;;16.84;60.65;99633.44;20712705;28;20260;-85
2023/07/02 02:33:35;;;;;;;5.93;3.00;;;;;;;16.50;60.41;99647.63;20743081;28;20224;-84
2023/07/02 02:43:42;;;;;;;10.07;4.25;;;;;;;16.74;58.98;99640.63;20694946;28;20336;-85
2023/07/02 02:53:47;;;;;;;10.07;5.03;;;;;;;16.51;59.07;99640.72;20799721;28;20213;-83
2023/07/02 03:03:50;;;;;;;10.98;6.00;;;;;;;16.21;59.22;99637.06;20771397;28;20201;-84
2023/07/02 03:13:52;;;;;;;10.60;5.38;;;;;;;16.77;56.20;99644.69;20810810;28;20239;-84
2023/07/02 03:23:55;;;;;;;12.77;6.43;;;;;;;16.19;58.15;99655.69;20815704;28;20222;-85
2023/07/02 03:33:57;;;;;;;13.27;7.20;;;;;;;15.92;58.66;99669.06;20759722;28;20275;-82
2023/07/02 03:44:00;;;;;;;15.33;7.70;;;;;;;17.38;54.67;99684.00;20701492;28;20209;-79
2023/07/02 03:54:03;;;;;;;16.58;7.75;;;;;;;16.63;56.93;99690.00;20746099;28;20613;-78
2023/07/02 04:04:05;;;;;;;14.20;7.90;;;;;;;16.84;55.77;99698.78;20784055;28;20188;-84
2023/07/02 04:14:08;;;;;;;16.70;9.20;;;;;;;16.14;58.30;99710.75;20812182;28;20255;-84
2023/07/02 04:24:11;;;;;;;15.70;8.83;;;;;;;17.12;55.58;99715.38;20804515;28;20239;-84
2023/07/02 04:34:14;;;;;;;19.15;9.40;;;;;;;17.01;56.13;99725.81;20777237;28;20225;-84
2023/07/02 04:44:16;;;;;;;16.27;9.47;;;;;;;17.17;55.02;99735.72;20760956;28;20200;-85
2023/07/02 04:54:20;;;;;;;22.00;10.15;;;;;;;17.02;55.88;99745.28;20786519;28;20228;-85
2023/07/02 05:04:23;;;;;;;17.58;9.98;;;;;;;17.40;54.66;99746.19;20768548;28;20513;-85
2023/07/02 05:14:25;;;;;;;19.47;10.87;;;;;;;17.12;55.90;99755.19;20815452;28;20278;-85
2023/07/02 05:24:28;;;;;;;19.75;11.43;;;;;;;16.40;58.00;99767.53;20846579;28;20200;-82
2023/07/02 05:34:30;;;;;;;17.83;10.13;;;;;;;17.23;55.41;99763.84;20770887;28;20224;-86
2023/07/02 05:44:33;;;;;;;25.30;12.07;;;;;;;17.27;55.66;99774.06;20823000;28;20541;-85
2023/07/02 05:54:39;;;;;;;21.23;12.00;;;;;;;16.49;57.60;99787.97;20801025;28;20278;-83
2023/07/02 06:04:42;;;;;;;20.57;11.93;;;;;;;17.39;55.23;99787.22;20806815;28;20258;-84
2023/07/02 06:14:45;;;;;;;24.92;12.32;;;;;;;17.99;53.68;99787.03;20769749;28;20225;-83
2023/07/02 06:24:47;;;;;;;23.50;11.88;;;;;;;16.81;56.23;99813.22;20782789;28;20201;-82
2023/07/02 06:34:50;;;;;;;25.10;13.55;;;;;;;17.20;55.81;99813.75;20758388;28;20220;-83
2023/07/02 06:44:52;;;;;;;22.48;12.43;;;;;;;17.70;53.48;99818.03;20758974;28;20197;-81
2023/07/02 06:54:55;;;;;;;24.88;12.45;;;;;;;17.87;52.36;99823.09;20769316;28;20285;-84
2023/07/02 07:04:57;;;;;;;27.50;11.63;;;;;;;16.69;53.11;99833.34;20792232;28;20223;-80
2023/07/02 07:15:00;;;;;;;22.02;11.88;;;;;;;17.93;47.88;99832.94;20787128;28;20227;-85
2023/07/02 07:25:03;;;;;;;15.75;8.57;;;;;;;17.23;44.14;99834.94;20756001;28;20558;-84
2023/07/02 07:35:06;;;;;;;21.90;8.98;;;;;;;17.93;41.78;99852.03;20720629;28;21035;-86
2023/07/02 07:45:10;;;;;;;13.57;8.73;;;;;;;18.41;40.62;99861.47;20729024;28;20217;-82
2023/07/02 07:55:12;;;;;;;20.48;8.52;;;;;;;18.23;40.32;99852.75;20698290;28;20225;-87
2023/07/02 08:05:15;;;;;;;21.35;9.18;;;;;;;18.82;38.52;99852.88;20682541;28;20669;-85
2023/07/02 08:15:18;;;;;;;15.52;8.98;;;;;;;18.15;38.87;99873.03;20687375;28;20631;-87
2023/07/02 08:25:21;;;;;;;15.77;7.82;;;;;;;18.10;37.66;99884.78;20690806;28;20549;-82
2023/07/02 08:35:24;;;;;;;16.80;8.98;;;;;;;18.08;37.74;99888.00;20709849;28;20229;-81
2023/07/02 08:45:26;;;;;;;17.13;8.52;;;;;;;19.13;36.41;99894.19;20678558;28;20204;-90
2023/07/02 08:55:29;;;;;;;19.55;8.00;;;;;;;18.14;36.79;99908.41;20780942;28;20220;-79
2023/07/02 09:05:31;;;;;;;19.75;8.18;;;;;;;18.37;36.32;99914.75;20764458;28;20275;-82
2023/07/02 09:15:39;;;;;;;19.13;7.80;;;;;;;19.33;33.89;99902.13;20754983;28;20228;-88
2023/07/02 09:25:42;;;;;;;13.60;6.68;;;;;;;19.14;34.45;99908.06;20756415;28;20204;-85
2023/07/02 09:35:44;;;;;;;14.07;6.47;;;;;;;18.31;35.04;99921.22;20801609;28;20240;-87
2023/07/02 09:45:48;;;;;;;12.20;5.85;;;;;;;19.42;33.35;99910.31;20732894;28;20223;-89
2023/07/02 09:55:51;;;;;;;12.30;6.18;;;;;;;19.78;31.81;99911.28;20757052;28;20228;-83
2023/07/02 10:06:03;;;;;;;15.73;5.85;;;;;;;20.01;32.49;99908.91;20771917;28;20201;-86
2023/07/02 10:16:06;;;;;;;11.50;5.90;;;;;;;19.53;33.29;99918.91;20767664;28;20223;-87
2023/07/02 10:26:14;;;;;;;16.95;7.00;;;;;;;18.92;35.19;99923.41;20770148;28;20196;-83
2023/07/02 10:36:24;;;;;;;12.77;6.22;;;;;;;19.48;34.21;99925.84;20758234;28;20660;-84
2023/07/02 10:46:27;;;;;;;14.75;7.50;;;;;;;19.39;34.49;99933.09;20787628;28;20258;-83
2023/07/02 10:56:30;;;;;;;11.90;6.00;;;;;;;19.09;33.74;99945.53;20751872;28;20235;-87
2023/07/02 11:06:33;;;;;;;12.70;5.97;;;;;;;20.33;31.48;99937.59;20752317;28;20197;-85
2023/07/02 11:16:35;;;;;;;13.30;5.70;;;;;;;20.76;31.33;99939.72;20741181;28;20302;-81
2023/07/02 11:26:41;;;;;;;13.25;6.47;;;;;;;21.27;30.83;99934.38;20786655;28;20267;-86
2023/07/02 11:36:44;;;;;;;14.00;6.70;;;;;;;20.19;31.02;99942.44;20753239;28;20260;-80
2023/07/02 11:46:47;;;;;;;12.40;5.65;;;;;;;19.22;32.42;99957.44;20774026;28;20201;-88
2023/07/02 11:56:51;;;;;;;12.00;5.60;;;;;;;20.24;32.18;99962.88;20769084;28;20220;-85
2023/07/02 12:06:54;;;;;;;12.30;6.60;;;;;;;21.58;29.76;99949.00;20737890;28;20193;-87
2023/07/02 12:17:00;;;;;;;11.30;5.85;;;;;;;21.64;28.97;99936.72;20745999;28;20216;-85
2023/07/02 12:27:07;;;;;;;13.55;5.88;;;;;;;20.08;30.07;99941.59;20782545;28;20274;-80
2023/07/02 12:37:17;;;;;;;10.82;5.50;;;;;;;22.48;27.92;99937.56;20798847;28;20350;-80
2023/07/02 12:47:26;;;;;;;12.82;5.63;;;;;;;20.00;28.72;99963.63;20754978;28;20188;-79
2023/07/02 12:57:35;;;;;;;10.73;5.13;;;;;;;21.58;28.00;99951.88;20781768;28;20399;-81
2023/07/02 13:07:41;;;;;;;12.43;5.47;;;;;;;21.81;27.76;99963.72;20752725;28;20768;-81
2023/07/02 13:17:48;;;;;;;11.55;5.38;;;;;;;21.39;28.68;99968.28;20797682;28;20263;-86
2023/07/02 13:27:53;;;;;;;12.07;5.45;;;;;;;20.21;29.80;99951.44;20779674;28;20197;-87
2023/07/02 13:37:59;;;;;;;13.50;5.57;;;;;;;22.71;28.05;99948.47;20812857;28;20504;-85
2023/07/02 13:48:05;;;;;;;12.50;5.93;;;;;;;21.66;28.80;99950.63;20786109;28;20542;-83
2023/07/02 13:58:09;;;;;;;13.73;5.90;;;;;;;21.65;28.88;99969.03;20770694;28;20553;-84
2023/07/02 14:08:11;;;;;;;16.08;6.72;;;;;;;21.62;29.22;99972.72;20756673;28;20310;-81
2023/07/02 14:18:14;;;;;;;9.20;5.57;;;;;;;20.83;30.92;99968.28;20728276;28;20228;-84
2023/07/02 14:28:17;;;;;;;15.30;7.30;;;;;;;21.61;29.99;99973.97;20750061;28;20248;-84
2023/07/02 14:38:20;;;;;;;11.43;6.72;;;;;;;21.31;30.15;99971.56;20735879;28;20260;-81
2023/07/02 14:48:24;;;;;;;14.55;7.00;;;;;;;21.76;29.96;99955.50;20779786;28;20306;-81
2023/07/02 14:58:28;;;;;;;12.70;7.55;;;;;;;22.88;29.00;99940.94;20754516;28;20197;-84
2023/07/02 15:08:30;;;;;;;14.32;7.65;;;;;;;21.56;30.58;99954.34;20736933;28;20322;-84
2023/07/02 15:18:33;;;;;;;16.15;7.18;;;;;;;21.73;30.78;99956.31;20758359;28;20200;-83
2023/07/02 15:28:36;;;;;;;12.40;6.68;;;;;;;21.36;31.25;99954.78;20791725;28;20279;-85
2023/07/02 15:38:39;;;;;;;16.40;6.28;;;;;;;21.54;31.36;99951.09;20772700;28;20282;-82
2023/07/02 15:48:41;;;;;;;16.48;7.45;;;;;;;20.95;31.58;99950.72;20744550;28;20279;-83
2023/07/02 15:58:44;;;;;;;13.55;7.18;;;;;;;21.43;30.60;99937.59;20727186;28;20201;-84
2023/07/02 16:08:47;;;;;;;13.88;6.82;;;;;;;21.30;31.40;99949.91;20784974;28;20212;-82
2023/07/02 16:18:49;;;;;;;10.98;7.00;;;;;;;21.07;31.81;99941.72;20769281;28;20217;-84
2023/07/02 16:28:53;;;;;;;15.07;7.38;;;;;;;20.64;31.74;99933.16;20776499;28;20255;-79
2023/07/02 16:38:56;;;;;;;13.65;6.75;;;;;;;21.60;30.64;99935.91;20799608;28;20569;-80
2023/07/02 16:49:01;;;;;;;14.52;6.97;;;;;;;21.26;31.01;99944.19;20789360;28;20212;-80
2023/07/02 16:59:04;;;;;;;13.32;7.05;;;;;;;21.66;30.37;99930.59;20809239;28;20220;-79
2023/07/02 17:09:31;;;;;;;13.77;6.47;;;;;;;20.91;31.86;99927.88;20758404;28;20719;-78
2023/07/02 17:19:37;;;;;;;13.70;6.57;;;;;;;21.35;30.53;99933.13;20771526;28;20279;-80
2023/07/02 17:29:41;;;;;;;13.43;6.78;;;;;;;21.55;30.22;99915.50;20801868;28;20717;-80
2023/07/02 17:39:45;;;;;;;15.85;6.45;;;;;;;21.64;31.14;99933.03;20772591;28;20317;-79
2023/07/02 17:49:48;;;;;;;11.38;6.63;;;;;;;21.21;30.60;99927.44;20758155;28;20216;-79
2023/07/02 17:59:55;;;;;;;9.20;6.07;;;;;;;21.72;30.63;99915.41;20788078;28;20279;-80
2023/07/02 18:09:58;;;;;;;14.65;6.65;;;;;;;21.87;30.31;99903.91;20732854;28;20267;-80
2023/07/02 18:20:01;;;;;;;11.60;6.10;;;;;;;21.60;30.26;99901.56;20725289;28;20298;-79
2023/07/02 18:30:04;;;;;;;15.80;5.95;;;;;;;20.97;30.38;99908.22;20758602;28;20302;-80
2023/07/02 18:40:08;;;;;;;13.02;7.10;;;;;;;20.69;32.04;99911.91;20779446;28;20228;-79
2023/07/02 18:50:14;;;;;;;11.48;6.90;;;;;;;20.69;32.04;99901.28;20782120;28;20301;-81
2023/07/02 19:00:18;;;;;;;15.82;7.15;;;;;;;20.88;32.97;99900.06;20746333;28;20189;-81
2023/07/02 19:10:21;;;;;;;12.45;6.53;;;;;;;20.97;33.22;99896.78;20757671;28;20286;-80
2023/07/02 19:20:27;;;;;;;10.30;6.47;;;;;;;20.69;32.44;99900.47;20767122;28;20188;-80
2023/07/02 19:30:31;;;;;;;9.57;3.88;;;;;;;20.41;32.50;99901.25;20794500;28;20228;-80
2023/07/02 19:40:34;;;;;;;7.45;4.25;;;;;;;20.95;31.10;99893.50;20802836;28;20279;-81
2023/07/02 19:50:37;;;;;;;8.95;3.67;;;;;;;20.26;32.09;99914.72;20775367;28;20216;-79
2023/07/02 20:00:41;;;;;;;7.20;3.13;;;;;;;20.38;32.19;99916.38;20773111;28;20208;-79
2023/07/02 20:10:44;;;;;;;6.38;3.05;;;;;;;20.50;31.94;99923.72;20768585;28;20245;-85
2023/07/02 20:20:49;;;;;;;9.23;3.75;;;;;;;20.19;32.35;99919.59;20761765;28;20466;-85
2023/07/02 20:30:53;;;;;;;5.35;3.03;;;;;;;19.87;33.08;99919.47;20768054;28;20747;-84
2023/07/02 20:41:03;;;;;;;8.18;3.90;;;;;;;20.08;34.75;99924.47;20816840;28;20731;-84
2023/07/02 20:51:06;;;;;;;9.10;3.60;;;;;;;19.91;33.83;99915.41;20785623;28;20285;-80
2023/07/02 21:01:13;;;;;;;6.10;3.15;;;;;;;19.66;35.41;99940.19;20784916;28;20200;-83
2023/07/02 21:11:15;;;;;;;7.18;4.15;;;;;;;19.66;33.36;99952.41;20795286;28;20216;-85
2023/07/02 21:21:36;;;;;;;8.13;3.97;;;;;;;19.03;34.76;99961.38;20770443;28;20204;-80
2023/07/02 21:31:39;;;;;;;7.10;3.65;;;;;;;19.14;34.71;99956.56;20797963;28;20306;-87
2023/07/02 21:41:41;;;;;;;11.68;4.10;;;;;;;18.98;36.19;99970.28;20718551;28;20522;-86
2023/07/02 21:51:44;;;;;;;8.10;3.65;;;;;;;19.02;36.20;99954.03;20735065;28;20217;-80
2023/07/02 22:01:47;;;;;;;8.15;3.60;;;;;;;19.00;35.44;99967.84;20692932;28;20193;-81
2023/07/02 22:11:50;;;;;;;12.00;4.22;;;;;;;18.96;35.14;99956.44;20686243;28;20225;-79
2023/07/02 22:21:54;;;;;;;8.60;3.78;;;;;;;18.71;37.74;99948.88;20709986;28;20209;-85
2023/07/02 22:31:56;;;;;;;10.77;4.25;;;;;;;18.61;38.03;99945.53;20699650;28;20310;-80
2023/07/02 22:41:59;;;;;;;9.95;4.03;;;;;;;18.36;36.66;99949.31;20767040;28;20232;-79
2023/07/02 22:52:02;;;;;;;8.73;3.78;;;;;;;19.02;35.93;99942.63;20747959;28;20216;-81
2023/07/02 23:02:04;;;;;;;8.52;4.68;;;;;;;18.81;36.49;99942.47;20773680;28;20201;-81
2023/07/02 23:12:07;;;;;;;10.00;4.15;;;;;;;18.32;37.31;99943.56;20768350;28;20629;-83
2023/07/02 23:22:13;;;;;;;11.40;4.57;;;;;;;18.41;37.96;99946.13;20748447;28;20196;-86
2023/07/02 23:32:16;;;;;;;8.03;4.50;;;;;;;18.18;39.16;99937.75;20749412;28;20233;-81
2023/07/02 23:42:29;;;;;;;9.82;3.72;;;;;;;16.50;40.34;99940.16;20786457;28;20250;-81
2023/07/02 23:52:36;;;;;;;13.93;2.95;;;;;;;16.37;39.42;99941.50;20768311;28;20388;-81
